Time;durP1;ratioP1;P1;durP2;ratioP2;P2;SDS_P1;SDS_P2;PMS_P1;PMS_P2;Temp;Humidity;BMP_temperature;BMP_pressure;BME280_temperature;BME280_humidity;BME280_pressure;Samples;Min_cycle;Max_cycle;Signal;HPM_P1;HPM_P2
2023/06/12 00:01:02;;;;;;;7.63;4.30;;;;;;;;;;5078953;28;20466;-79
2023/06/12 00:03:29;;;;;;;10.43;5.30;;;;;;;;;;5085574;28;20902;-80
2023/06/12 00:05:58;;;;;;;6.47;4.30;;;;;;;;;;5079911;28;20463;-79
2023/06/12 00:08:27;;;;;;;5.80;3.97;;;;;;;;;;5075477;28;20449;-79
2023/06/12 00:10:54;;;;;;;7.00;4.10;;;;;;;;;;5073360;28;20453;-80
2023/06/12 00:13:21;;;;;;;11.90;5.23;;;;;;;;;;5076369;28;20457;-80
2023/06/12 00:15:47;;;;;;;7.23;4.90;;;;;;;;;;5084612;28;20427;-80
2023/06/12 00:18:15;;;;;;;10.80;5.40;;;;;;;;;;5080905;28;20454;-80
2023/06/12 00:20:42;;;;;;;7.10;4.50;;;;;;;;;;5074806;28;20482;-80
2023/06/12 00:23:10;;;;;;;5.03;3.80;;;;;;;;;;5077542;28;20856;-80
2023/06/12 00:25:36;;;;;;;9.47;4.70;;;;;;;;;;5078686;28;20455;-80
2023/06/12 00:28:04;;;;;;;8.07;4.90;;;;;;;;;;5081508;28;20445;-80
2023/06/12 00:30:30;;;;;;;10.33;5.27;;;;;;;;;;5079411;28;20449;-80
2023/06/12 00:32:57;;;;;;;7.20;4.50;;;;;;;;;;5082873;28;20446;-80
2023/06/12 00:35:25;;;;;;;5.93;4.20;;;;;;;;;;5079995;28;20439;-80
2023/06/12 00:37:51;;;;;;;5.10;4.60;;;;;;;;;;5086107;28;20480;-80
2023/06/12 00:40:17;;;;;;;7.77;4.40;;;;;;;;;;5085190;28;20453;-79
2023/06/12 00:42:45;;;;;;;13.63;5.07;;;;;;;;;;5081396;28;20982;-80
2023/06/12 00:45:12;;;;;;;11.87;5.50;;;;;;;;;;5078172;28;20430;-79
2023/06/12 00:47:39;;;;;;;7.40;4.40;;;;;;;;;;5068298;28;20488;-80
2023/06/12 00:50:08;;;;;;;8.30;4.60;;;;;;;;;;5078786;28;20457;-80
2023/06/12 00:52:35;;;;;;;6.13;4.73;;;;;;;;;;5078819;28;20469;-80
2023/06/12 00:55:02;;;;;;;13.60;5.13;;;;;;;;;;5086794;28;20428;-79
2023/06/12 00:57:29;;;;;;;8.60;5.10;;;;;;;;;;5076318;28;20468;-80
2023/06/12 00:59:55;;;;;;;9.07;5.47;;;;;;;;;;5074494;28;20450;-80
2023/06/12 01:02:22;;;;;;;8.23;5.13;;;;;;;;;;5063056;28;20499;-80
2023/06/12 01:04:49;;;;;;;10.00;5.63;;;;;;;;;;5075110;28;20422;-79
2023/06/12 01:07:23;;;;;;;7.30;5.20;;;;;;;;;;5079805;28;20463;-80
2023/06/12 01:09:56;;;;;;;6.33;4.80;;;;;;;;;;5082943;28;20428;-80
2023/06/12 01:12:23;;;;;;;8.07;5.00;;;;;;;;;;5077432;28;20470;-80
2023/06/12 01:14:49;;;;;;;12.00;4.73;;;;;;;;;;5087491;28;20430;-80
2023/06/12 01:17:16;;;;;;;8.27;4.80;;;;;;;;;;5079082;28;20447;-80
2023/06/12 01:19:43;;;;;;;6.87;4.97;;;;;;;;;;5081091;28;20513;-80
2023/06/12 01:22:12;;;;;;;5.07;4.27;;;;;;;;;;5077461;28;20477;-79
2023/06/12 01:24:57;;;;;;;6.20;4.20;;;;;;;;;;5082255;28;20417;-79
2023/06/12 01:27:33;;;;;;;6.10;4.77;;;;;;;;;;5074937;28;20454;-79
2023/06/12 01:30:09;;;;;;;7.10;4.87;;;;;;;;;;5075818;28;20437;-79
2023/06/12 01:32:39;;;;;;;7.93;5.17;;;;;;;;;;5074310;28;20528;-79
2023/06/12 01:35:08;;;;;;;8.73;5.13;;;;;;;;;;5086391;28;20538;-80
2023/06/12 01:37:35;;;;;;;5.40;4.90;;;;;;;;;;5082079;28;20495;-80
2023/06/12 01:40:05;;;;;;;8.37;4.53;;;;;;;;;;5070032;28;20956;-80
2023/06/12 01:42:32;;;;;;;7.03;5.40;;;;;;;;;;5073091;28;20448;-80
2023/06/12 01:44:58;;;;;;;6.37;5.13;;;;;;;;;;5075058;28;20416;-79
2023/06/12 01:47:25;;;;;;;7.80;4.80;;;;;;;;;;5076190;28;20479;-79
2023/06/12 01:49:52;;;;;;;5.70;4.80;;;;;;;;;;5081740;28;20794;-80
2023/06/12 01:52:19;;;;;;;6.60;4.93;;;;;;;;;;5084768;28;20489;-79
2023/06/12 01:54:47;;;;;;;8.67;5.37;;;;;;;;;;5077079;28;20956;-79
2023/06/12 01:57:14;;;;;;;10.73;4.60;;;;;;;;;;5076838;28;20824;-79
2023/06/12 01:59:40;;;;;;;11.83;5.37;;;;;;;;;;5073431;28;20450;-80
2023/06/12 02:02:07;;;;;;;6.20;4.67;;;;;;;;;;5074076;28;20506;-79
2023/06/12 02:04:33;;;;;;;7.27;5.03;;;;;;;;;;5086833;28;20453;-79
2023/06/12 02:07:01;;;;;;;8.80;5.47;;;;;;;;;;5081091;28;20974;-79
2023/06/12 02:09:27;;;;;;;9.13;5.50;;;;;;;;;;5078083;28;20462;-80
2023/06/12 02:11:54;;;;;;;6.33;4.67;;;;;;;;;;5082330;28;20465;-79
2023/06/12 02:14:20;;;;;;;6.63;5.43;;;;;;;;;;5068889;28;20452;-80
2023/06/12 02:16:48;;;;;;;6.93;5.77;;;;;;;;;;5082445;28;20466;-79
2023/06/12 02:19:14;;;;;;;9.63;4.77;;;;;;;;;;5086075;28;20445;-79
2023/06/12 02:21:41;;;;;;;8.13;5.13;;;;;;;;;;5092697;28;20454;-79
2023/06/12 02:24:09;;;;;;;16.43;5.63;;;;;;;;;;5087370;28;20829;-79
2023/06/12 02:26:35;;;;;;;6.83;4.63;;;;;;;;;;5078996;28;20984;-79
2023/06/12 02:29:08;;;;;;;6.23;5.30;;;;;;;;;;5080252;28;20465;-79
2023/06/12 02:31:36;;;;;;;8.20;5.23;;;;;;;;;;5086702;28;20478;-79
2023/06/12 02:34:02;;;;;;;5.40;4.90;;;;;;;;;;5076448;28;20492;-79
2023/06/12 02:36:29;;;;;;;7.13;4.50;;;;;;;;;;5070459;28;20476;-79
2023/06/12 02:38:56;;;;;;;5.00;4.50;;;;;;;;;;5083802;28;20477;-80
2023/06/12 02:41:24;;;;;;;7.53;5.03;;;;;;;;;;5081556;28;20463;-80
2023/06/12 02:43:50;;;;;;;8.40;5.50;;;;;;;;;;5091535;28;20514;-79
2023/06/12 02:46:17;;;;;;;6.63;4.93;;;;;;;;;;5083009;28;20467;-80
2023/06/12 02:48:43;;;;;;;7.00;5.40;;;;;;;;;;5085411;28;20441;-79
2023/06/12 02:51:09;;;;;;;7.93;5.40;;;;;;;;;;5083054;28;20489;-79
2023/06/12 02:53:36;;;;;;;7.63;5.27;;;;;;;;;;5083706;28;20978;-79
2023/06/12 02:56:02;;;;;;;8.37;5.03;;;;;;;;;;5091244;28;20446;-79
2023/06/12 02:58:32;;;;;;;5.43;4.93;;;;;;;;;;5077060;28;20474;-80
2023/06/12 03:00:58;;;;;;;12.50;5.30;;;;;;;;;;5086390;28;20470;-79
2023/06/12 03:03:25;;;;;;;6.90;4.73;;;;;;;;;;5080370;28;20467;-80
2023/06/12 03:05:51;;;;;;;8.27;5.07;;;;;;;;;;5078384;28;20450;-79
2023/06/12 03:08:18;;;;;;;6.53;5.90;;;;;;;;;;5079739;28;20484;-79
2023/06/12 03:10:45;;;;;;;7.30;4.83;;;;;;;;;;5078111;28;20487;-80
2023/06/12 03:13:12;;;;;;;11.37;6.03;;;;;;;;;;5088034;28;20488;-79
2023/06/12 03:15:40;;;;;;;8.60;5.10;;;;;;;;;;5088916;28;21195;-79
2023/06/12 03:18:06;;;;;;;9.10;6.00;;;;;;;;;;5082742;28;20482;-79
2023/06/12 03:20:34;;;;;;;7.00;5.47;;;;;;;;;;5075948;28;20852;-80
2023/06/12 03:23:01;;;;;;;6.37;4.83;;;;;;;;;;5073030;28;20475;-79
2023/06/12 03:25:27;;;;;;;5.87;4.97;;;;;;;;;;5080031;28;20438;-79
2023/06/12 03:27:53;;;;;;;10.80;5.27;;;;;;;;;;5083731;28;20548;-79
2023/06/12 03:30:20;;;;;;;8.20;5.40;;;;;;;;;;5078029;28;20438;-79
2023/06/12 03:32:47;;;;;;;8.27;5.60;;;;;;;;;;5088470;28;20489;-79
2023/06/12 03:35:14;;;;;;;7.60;5.20;;;;;;;;;;5086040;28;20442;-79
2023/06/12 03:37:40;;;;;;;5.93;5.03;;;;;;;;;;5079509;28;20490;-79
2023/06/12 03:40:07;;;;;;;8.27;5.30;;;;;;;;;;5083384;28;20446;-79
2023/06/12 03:42:34;;;;;;;8.63;4.90;;;;;;;;;;5073647;28;20477;-79
2023/06/12 03:45:00;;;;;;;11.17;5.80;;;;;;;;;;5086329;28;20505;-79
2023/06/12 03:47:27;;;;;;;6.90;5.70;;;;;;;;;;5083659;28;20474;-79
2023/06/12 03:49:54;;;;;;;5.47;4.97;;;;;;;;;;5082207;28;20478;-79
2023/06/12 03:52:21;;;;;;;11.37;6.20;;;;;;;;;;5083551;28;20475;-79
2023/06/12 03:54:49;;;;;;;9.90;5.80;;;;;;;;;;5085951;28;20509;-79
2023/06/12 03:57:15;;;;;;;7.27;4.90;;;;;;;;;;5076227;28;20479;-80
2023/06/12 03:59:44;;;;;;;6.53;5.70;;;;;;;;;;5076303;28;20955;-79
2023/06/12 04:02:10;;;;;;;9.70;6.10;;;;;;;;;;5076844;28;20474;-79
2023/06/12 04:04:36;;;;;;;6.20;5.60;;;;;;;;;;5079008;28;20980;-79
2023/06/12 04:07:04;;;;;;;6.20;5.27;;;;;;;;;;5080665;28;20487;-79
2023/06/12 04:09:31;;;;;;;9.50;5.40;;;;;;;;;;5088926;28;20450;-79
2023/06/12 04:11:57;;;;;;;12.03;5.70;;;;;;;;;;5076078;28;20471;-79
2023/06/12 04:14:24;;;;;;;6.40;5.80;;;;;;;;;;5079542;28;20463;-80
2023/06/12 04:16:50;;;;;;;10.00;6.17;;;;;;;;;;5076441;28;20489;-79
2023/06/12 04:19:17;;;;;;;14.60;7.60;;;;;;;;;;5080261;28;20446;-79
2023/06/12 04:21:43;;;;;;;13.63;7.80;;;;;;;;;;5080994;28;20459;-79
2023/06/12 04:24:15;;;;;;;7.53;5.93;;;;;;;;;;5076660;28;20439;-79
2023/06/12 04:26:43;;;;;;;7.60;6.17;;;;;;;;;;5080898;28;20459;-79
2023/06/12 04:29:10;;;;;;;15.53;6.77;;;;;;;;;;5082925;28;20529;-79
2023/06/12 04:31:36;;;;;;;8.97;6.33;;;;;;;;;;5038809;28;1175758;-79
2023/06/12 04:34:03;;;;;;;8.50;5.80;;;;;;;;;;5078950;28;20212;-80
2023/06/12 04:36:33;;;;;;;9.47;7.37;;;;;;;;;;5079221;28;20528;-79
2023/06/12 04:39:01;;;;;;;8.27;5.97;;;;;;;;;;5077420;28;20465;-79
2023/06/12 04:41:32;;;;;;;12.13;6.83;;;;;;;;;;5086097;28;20462;-79
2023/06/12 04:44:00;;;;;;;12.13;6.77;;;;;;;;;;5083379;28;20454;-79
2023/06/12 04:46:27;;;;;;;8.17;6.33;;;;;;;;;;5083668;28;20543;-79
2023/06/12 04:48:54;;;;;;;7.53;6.77;;;;;;;;;;5077569;28;20477;-79
2023/06/12 04:51:23;;;;;;;8.63;6.70;;;;;;;;;;5078266;28;20509;-79
2023/06/12 04:53:53;;;;;;;8.83;5.93;;;;;;;;;;5067757;28;20471;-79
2023/06/12 04:56:20;;;;;;;10.47;7.20;;;;;;;;;;5076471;28;20439;-80
2023/06/12 04:58:49;;;;;;;11.63;6.67;;;;;;;;;;5083634;28;20467;-80
2023/06/12 05:01:19;;;;;;;8.87;7.57;;;;;;;;;;5077456;28;20817;-79
2023/06/12 05:03:46;;;;;;;11.40;6.43;;;;;;;;;;5069908;28;20543;-79
2023/06/12 05:06:12;;;;;;;8.67;6.97;;;;;;;;;;5078390;28;20466;-79
2023/06/12 05:08:38;;;;;;;9.53;6.43;;;;;;;;;;5078243;28;20853;-80
2023/06/12 05:11:05;;;;;;;10.47;7.47;;;;;;;;;;5075328;28;20463;-80
2023/06/12 05:13:31;;;;;;;11.43;7.10;;;;;;;;;;5078370;28;20555;-79
2023/06/12 05:15:59;;;;;;;8.10;7.13;;;;;;;;;;5080428;28;20450;-80
2023/06/12 05:18:26;;;;;;;7.90;7.10;;;;;;;;;;5081560;28;20914;-79
2023/06/12 05:20:52;;;;;;;10.67;7.60;;;;;;;;;;5078207;28;20941;-79
2023/06/12 05:23:20;;;;;;;7.90;7.20;;;;;;;;;;5086353;28;20462;-79
2023/06/12 05:25:46;;;;;;;10.40;6.87;;;;;;;;;;5081226;28;20454;-79
2023/06/12 05:28:13;;;;;;;9.70;7.40;;;;;;;;;;5079920;28;20488;-79
2023/06/12 05:30:39;;;;;;;13.33;8.47;;;;;;;;;;5072261;28;21064;-80
2023/06/12 05:33:07;;;;;;;11.90;6.87;;;;;;;;;;5076494;28;20466;-79
2023/06/12 05:35:34;;;;;;;8.53;7.63;;;;;;;;;;5075341;28;20450;-80
2023/06/12 05:38:00;;;;;;;9.33;6.90;;;;;;;;;;5073360;28;20628;-80
2023/06/12 05:40:27;;;;;;;11.20;7.93;;;;;;;;;;5080535;28;20447;-79
2023/06/12 05:42:53;;;;;;;13.63;8.60;;;;;;;;;;5076883;28;20497;-79
2023/06/12 05:45:19;;;;;;;14.07;8.23;;;;;;;;;;5069762;28;20469;-80
2023/06/12 05:47:46;;;;;;;13.60;8.67;;;;;;;;;;5074281;28;20450;-80
2023/06/12 05:50:14;;;;;;;11.60;7.43;;;;;;;;;;5079603;28;20578;-80
2023/06/12 05:52:41;;;;;;;8.40;7.03;;;;;;;;;;5085026;28;20470;-80
2023/06/12 05:55:08;;;;;;;8.97;8.00;;;;;;;;;;5086749;28;20486;-79
2023/06/12 05:57:35;;;;;;;13.80;8.53;;;;;;;;;;5078193;28;20981;-80
2023/06/12 06:00:02;;;;;;;13.03;7.70;;;;;;;;;;5074408;28;20413;-80
2023/06/12 06:02:28;;;;;;;11.17;8.50;;;;;;;;;;5081401;28;20469;-80
2023/06/12 06:04:54;;;;;;;9.23;8.13;;;;;;;;;;5083442;28;20445;-80
2023/06/12 06:07:22;;;;;;;11.20;9.27;;;;;;;;;;5075184;28;20478;-80
2023/06/12 06:09:49;;;;;;;11.37;8.97;;;;;;;;;;5083424;28;20414;-80
2023/06/12 06:12:16;;;;;;;10.87;9.03;;;;;;;;;;5077911;28;20479;-80
2023/06/12 06:14:42;;;;;;;10.87;9.73;;;;;;;;;;5083573;28;20437;-80
2023/06/12 06:17:10;;;;;;;13.00;8.07;;;;;;;;;;5085399;28;20453;-80
2023/06/12 06:19:36;;;;;;;12.37;9.57;;;;;;;;;;5075426;28;20911;-80
2023/06/12 06:22:04;;;;;;;10.90;9.30;;;;;;;;;;5077530;28;20453;-80
2023/06/12 06:24:32;;;;;;;10.00;9.00;;;;;;;;;;5083347;28;20424;-80
2023/06/12 06:26:58;;;;;;;16.80;10.10;;;;;;;;;;5076739;28;20470;-80
2023/06/12 06:29:25;;;;;;;11.77;10.13;;;;;;;;;;5082298;28;20445;-80
2023/06/12 06:31:51;;;;;;;13.27;10.63;;;;;;;;;;5076738;28;21069;-80
2023/06/12 06:34:18;;;;;;;11.10;9.93;;;;;;;;;;5079801;28;20422;-80
2023/06/12 06:36:45;;;;;;;12.47;10.10;;;;;;;;;;5083960;28;20534;-80
2023/06/12 06:39:11;;;;;;;11.27;9.87;;;;;;;;;;5073670;28;20459;-80
2023/06/12 06:41:39;;;;;;;11.33;9.30;;;;;;;;;;5076621;28;20466;-80
2023/06/12 06:44:06;;;;;;;11.87;9.90;;;;;;;;;;5087644;28;20453;-80
2023/06/12 06:46:32;;;;;;;12.27;9.53;;;;;;;;;;5083737;28;20413;-80
2023/06/12 06:48:59;;;;;;;10.70;9.57;;;;;;;;;;5086002;28;20819;-80
2023/06/12 06:51:25;;;;;;;14.97;11.00;;;;;;;;;;5070972;28;20438;-80
2023/06/12 06:53:52;;;;;;;15.73;10.87;;;;;;;;;;5079096;28;21003;-80
2023/06/12 06:56:18;;;;;;;11.23;9.97;;;;;;;;;;5075209;28;20796;-80
2023/06/12 06:58:46;;;;;;;11.80;10.20;;;;;;;;;;5079762;28;20453;-80
2023/06/12 07:01:12;;;;;;;10.73;9.60;;;;;;;;;;5084520;28;20442;-80
2023/06/12 07:03:39;;;;;;;14.77;10.03;;;;;;;;;;5054144;28;20466;-80
2023/06/12 07:06:06;;;;;;;14.90;10.57;;;;;;;;;;5051795;28;20458;-80
2023/06/12 07:08:33;;;;;;;15.43;11.23;;;;;;;;;;5062589;28;20482;-80
2023/06/12 07:10:59;;;;;;;13.37;10.23;;;;;;;;;;5063177;28;20462;-80
2023/06/12 07:13:26;;;;;;;13.07;10.33;;;;;;;;;;5064139;28;20478;-80
2023/06/12 07:15:54;;;;;;;14.73;9.50;;;;;;;;;;5061172;28;20451;-80
2023/06/12 07:18:20;;;;;;;11.37;10.23;;;;;;;;;;5060832;28;20476;-80
2023/06/12 07:20:46;;;;;;;11.33;10.23;;;;;;;;;;5064298;28;20888;-80
2023/06/12 07:23:13;;;;;;;11.90;9.43;;;;;;;;;;5062407;28;20474;-80
2023/06/12 07:25:39;;;;;;;11.97;10.87;;;;;;;;;;5061731;28;20443;-79
2023/06/12 07:28:05;;;;;;;12.07;10.10;;;;;;;;;;5071127;28;20996;-80
2023/06/12 07:30:33;;;;;;;15.00;9.93;;;;;;;;;;5057401;28;20976;-80
2023/06/12 07:33:01;;;;;;;11.70;10.50;;;;;;;;;;5059195;28;20573;-80
2023/06/12 07:35:28;;;;;;;11.17;10.07;;;;;;;;;;5060991;28;20461;-80
2023/06/12 07:37:54;;;;;;;12.10;10.77;;;;;;;;;;5066803;28;20474;-80
2023/06/12 07:40:21;;;;;;;10.80;9.70;;;;;;;;;;5059111;28;20446;-80
2023/06/12 07:42:48;;;;;;;14.20;11.20;;;;;;;;;;5069858;28;21037;-80
2023/06/12 07:45:14;;;;;;;11.13;10.00;;;;;;;;;;5060907;28;20451;-79
2023/06/12 07:47:42;;;;;;;11.37;10.03;;;;;;;;;;5056736;28;20479;-81
2023/06/12 07:50:10;;;;;;;14.63;11.37;;;;;;;;;;5054785;28;20483;-80
2023/06/12 07:52:37;;;;;;;15.57;10.13;;;;;;;;;;5061804;28;20480;-80
2023/06/12 07:55:05;;;;;;;11.23;10.20;;;;;;;;;;5066250;28;20864;-80
2023/06/12 07:57:31;;;;;;;11.43;10.33;;;;;;;;;;5062452;28;20927;-79
2023/06/12 07:59:58;;;;;;;10.90;9.90;;;;;;;;;;5068023;28;20435;-80
2023/06/12 08:02:28;;;;;;;11.90;10.70;;;;;;;;;;5064954;28;20471;-80
2023/06/12 08:04:55;;;;;;;11.43;10.00;;;;;;;;;;5070270;28;20526;-81
2023/06/12 08:07:25;;;;;;;10.90;9.80;;;;;;;;;;5067106;28;20478;-80
2023/06/12 08:09:51;;;;;;;20.43;12.33;;;;;;;;;;5074988;28;20820;-80
2023/06/12 08:12:17;;;;;;;12.57;10.30;;;;;;;;;;5062450;28;20467;-81
2023/06/12 08:14:46;;;;;;;13.10;11.80;;;;;;;;;;5056568;28;20452;-80
2023/06/12 08:17:12;;;;;;;11.23;10.13;;;;;;;;;;5058406;28;21063;-81
2023/06/12 08:19:39;;;;;;;18.97;10.93;;;;;;;;;;5068258;28;20518;-80
2023/06/12 08:22:07;;;;;;;12.40;11.10;;;;;;;;;;5049839;28;20479;-81
2023/06/12 08:24:35;;;;;;;11.67;10.60;;;;;;;;;;5066494;28;20466;-80
2023/06/12 08:27:02;;;;;;;13.50;11.00;;;;;;;;;;5067558;28;20532;-80
2023/06/12 08:29:28;;;;;;;14.27;12.43;;;;;;;;;;5065272;28;20447;-81
2023/06/12 08:31:55;;;;;;;12.17;10.77;;;;;;;;;;5064410;28;20482;-80
2023/06/12 08:34:24;;;;;;;13.03;10.83;;;;;;;;;;5071659;28;20545;-81
2023/06/12 08:36:52;;;;;;;13.60;12.30;;;;;;;;;;5059437;28;20479;-81
2023/06/12 08:39:19;;;;;;;12.27;11.07;;;;;;;;;;5056086;28;20497;-80
2023/06/12 08:41:52;;;;;;;14.03;12.40;;;;;;;;;;5069917;28;20471;-80
2023/06/12 08:44:20;;;;;;;13.97;12.13;;;;;;;;;;5075283;28;20465;-81
2023/06/12 08:46:47;;;;;;;12.70;11.50;;;;;;;;;;5072057;28;21000;-81
2023/06/12 08:49:15;;;;;;;13.97;12.47;;;;;;;;;;5059146;28;20452;-81
2023/06/12 08:51:43;;;;;;;20.03;12.20;;;;;;;;;;5062582;28;20818;-80
2023/06/12 08:54:10;;;;;;;13.90;12.63;;;;;;;;;;5063691;28;20483;-81
2023/06/12 08:56:37;;;;;;;14.00;12.40;;;;;;;;;;5055119;28;20460;-81
2023/06/12 08:59:05;;;;;;;16.43;12.50;;;;;;;;;;5068354;28;20459;-80
2023/06/12 09:01:36;;;;;;;15.30;12.63;;;;;;;;;;5064461;28;20960;-80
2023/06/12 09:04:04;;;;;;;16.50;13.70;;;;;;;;;;5074056;28;20427;-81
2023/06/12 09:06:34;;;;;;;13.70;12.03;;;;;;;;;;5061374;28;20447;-80
2023/06/12 09:09:00;;;;;;;12.53;11.43;;;;;;;;;;5069998;28;20494;-81
2023/06/12 09:11:27;;;;;;;13.40;12.20;;;;;;;;;;5057405;28;20450;-81
2023/06/12 09:13:53;;;;;;;14.83;11.87;;;;;;;;;;5061565;28;20490;-81
2023/06/12 09:16:21;;;;;;;13.43;12.10;;;;;;;;;;5068440;28;20963;-81
2023/06/12 09:18:51;;;;;;;14.40;13.00;;;;;;;;;;5064058;28;20479;-81
2023/06/12 09:21:17;;;;;;;12.27;11.03;;;;;;;;;;5039376;28;20448;-81
2023/06/12 09:23:45;;;;;;;13.47;12.13;;;;;;;;;;5072359;28;20525;-81
2023/06/12 09:26:13;;;;;;;13.10;11.70;;;;;;;;;;5079858;28;20475;-80
2023/06/12 09:28:42;;;;;;;13.47;11.80;;;;;;;;;;5073392;28;20514;-81
2023/06/12 09:31:09;;;;;;;13.20;11.80;;;;;;;;;;5085868;28;20457;-81
2023/06/12 09:33:39;;;;;;;17.77;11.00;;;;;;;;;;5055480;28;20472;-81
2023/06/12 09:36:05;;;;;;;13.90;12.03;;;;;;;;;;5057739;28;20444;-81
2023/06/12 09:38:32;;;;;;;10.97;9.90;;;;;;;;;;5056800;28;20472;-81
2023/06/12 09:40:59;;;;;;;13.17;11.77;;;;;;;;;;5068264;28;20530;-81
2023/06/12 09:43:26;;;;;;;11.93;10.77;;;;;;;;;;5065624;28;20471;-81
2023/06/12 09:45:52;;;;;;;18.37;11.27;;;;;;;;;;5062056;28;20566;-81
2023/06/12 09:48:19;;;;;;;11.27;10.07;;;;;;;;;;5057895;28;20476;-81
2023/06/12 09:50:47;;;;;;;11.67;10.30;;;;;;;;;;5043541;28;20937;-81
2023/06/12 09:53:17;;;;;;;25.00;11.90;;;;;;;;;;5058387;28;20533;-81
2023/06/12 09:55:44;;;;;;;12.10;10.83;;;;;;;;;;5069161;28;20448;-81
2023/06/12 09:58:12;;;;;;;12.17;11.13;;;;;;;;;;5060861;28;20485;-80
2023/06/12 10:00:39;;;;;;;12.63;9.90;;;;;;;;;;5056776;28;20444;-81
2023/06/12 10:03:09;;;;;;;19.43;13.27;;;;;;;;;;5060505;28;20464;-80
2023/06/12 10:05:37;;;;;;;16.30;12.77;;;;;;;;;;5064760;28;20444;-81
2023/06/12 10:08:05;;;;;;;16.10;11.93;;;;;;;;;;5062933;28;20472;-81
2023/06/12 10:10:32;;;;;;;13.70;12.23;;;;;;;;;;5058946;28;20824;-81
2023/06/12 10:13:00;;;;;;;10.70;9.53;;;;;;;;;;5061832;28;20997;-81
2023/06/12 10:15:27;;;;;;;12.03;10.83;;;;;;;;;;5066750;28;20439;-81
2023/06/12 10:17:53;;;;;;;12.33;11.10;;;;;;;;;;5041363;28;20472;-81
2023/06/12 10:20:20;;;;;;;14.23;11.77;;;;;;;;;;5059318;28;20448;-81
2023/06/12 10:22:47;;;;;;;15.97;11.20;;;;;;;;;;5065586;28;21107;-81
2023/06/12 10:25:15;;;;;;;11.97;10.90;;;;;;;;;;5077579;28;20442;-81
2023/06/12 10:27:43;;;;;;;12.27;10.53;;;;;;;;;;5085936;28;20473;-80
2023/06/12 10:30:10;;;;;;;11.60;10.10;;;;;;;;;;5077151;28;20447;-80
2023/06/12 10:32:37;;;;;;;11.10;10.10;;;;;;;;;;5067122;28;20476;-81
2023/06/12 10:35:04;;;;;;;13.63;11.40;;;;;;;;;;5056981;28;20940;-81
2023/06/12 10:37:31;;;;;;;10.97;9.83;;;;;;;;;;5066984;28;20472;-81
2023/06/12 10:40:07;;;;;;;12.07;10.80;;;;;;;;;;5058656;28;20790;-81
2023/06/12 10:42:41;;;;;;;12.90;10.60;;;;;;;;;;5056301;28;20470;-81
2023/06/12 10:45:15;;;;;;;12.17;9.60;;;;;;;;;;5054169;28;20444;-81
2023/06/12 10:47:42;;;;;;;11.60;10.30;;;;;;;;;;5050056;28;20993;-81
2023/06/12 10:50:08;;;;;;;12.13;9.03;;;;;;;;;;5055812;28;20822;-81
2023/06/12 10:52:35;;;;;;;11.33;10.23;;;;;;;;;;5055946;28;20471;-81
2023/06/12 10:55:18;;;;;;;9.90;9.10;;;;;;;;;;5066597;28;20571;-81
2023/06/12 10:57:51;;;;;;;14.57;9.33;;;;;;;;;;5055047;28;20483;-80
2023/06/12 11:00:18;;;;;;;10.60;9.40;;;;;;;;;;5068114;28;20443;-81
2023/06/12 11:02:47;;;;;;;12.23;9.10;;;;;;;;;;5055292;28;20566;-80
2023/06/12 11:05:14;;;;;;;11.77;9.10;;;;;;;;;;5063370;28;20451;-81
2023/06/12 11:07:42;;;;;;;10.00;8.07;;;;;;;;;;5060562;28;20498;-81
2023/06/12 11:10:09;;;;;;;12.83;9.83;;;;;;;;;;5063137;28;20440;-81
2023/06/12 11:12:37;;;;;;;10.80;9.13;;;;;;;;;;5054973;28;20482;-80
2023/06/12 11:15:05;;;;;;;9.83;8.87;;;;;;;;;;5073976;28;20851;-79
2023/06/12 11:17:33;;;;;;;9.50;8.60;;;;;;;;;;5062610;28;20483;-79
2023/06/12 11:20:00;;;;;;;9.60;8.60;;;;;;;;;;5060982;28;20455;-79
2023/06/12 11:22:26;;;;;;;10.43;9.10;;;;;;;;;;5061131;28;20474;-79
2023/06/12 11:24:59;;;;;;;10.57;9.47;;;;;;;;;;5061270;28;20440;-80
2023/06/12 11:27:25;;;;;;;10.63;9.50;;;;;;;;;;5065633;28;20472;-79
2023/06/12 11:29:52;;;;;;;9.30;8.50;;;;;;;;;;5063291;28;20452;-80
2023/06/12 11:32:20;;;;;;;16.30;8.77;;;;;;;;;;5057630;28;20483;-80
2023/06/12 11:34:46;;;;;;;9.80;8.90;;;;;;;;;;5058671;28;20487;-80
2023/06/12 11:37:14;;;;;;;11.70;10.40;;;;;;;;;;5070148;28;20474;-80
2023/06/12 11:39:41;;;;;;;10.37;9.30;;;;;;;;;;5079265;28;20446;-80
2023/06/12 11:42:07;;;;;;;10.10;8.77;;;;;;;;;;5080258;28;20466;-80
2023/06/12 11:44:34;;;;;;;9.77;8.87;;;;;;;;;;5084297;28;20449;-80
2023/06/12 11:47:01;;;;;;;9.60;8.70;;;;;;;;;;5081890;28;20520;-80
2023/06/12 11:49:31;;;;;;;9.77;8.80;;;;;;;;;;5082578;28;20457;-80
2023/06/12 11:51:57;;;;;;;10.57;8.73;;;;;;;;;;5081057;28;20565;-80
2023/06/12 11:54:24;;;;;;;9.57;8.53;;;;;;;;;;5085763;28;20486;-80
2023/06/12 11:56:51;;;;;;;9.30;8.40;;;;;;;;;;5067075;28;20473;-80
2023/06/12 11:59:18;;;;;;;9.07;8.17;;;;;;;;;;5077044;28;20450;-80
2023/06/12 12:01:48;;;;;;;8.50;7.80;;;;;;;;;;5078188;28;20542;-81
2023/06/12 12:04:17;;;;;;;9.40;8.50;;;;;;;;;;5079794;28;20478;-80
2023/06/12 12:06:48;;;;;;;8.97;8.10;;;;;;;;;;5083790;28;20491;-80
2023/06/12 12:09:23;;;;;;;11.03;7.53;;;;;;;;;;5076836;28;20435;-80
2023/06/12 12:11:51;;;;;;;9.07;8.17;;;;;;;;;;5081217;28;20469;-79
2023/06/12 12:14:17;;;;;;;10.27;8.67;;;;;;;;;;5076620;28;21076;-80
2023/06/12 12:16:44;;;;;;;9.03;7.53;;;;;;;;;;5088412;28;20462;-80
2023/06/12 12:19:19;;;;;;;9.80;8.20;;;;;;;;;;5085996;28;20469;-80
2023/06/12 12:21:46;;;;;;;10.03;8.50;;;;;;;;;;5090008;28;20465;-80
2023/06/12 12:24:14;;;;;;;11.17;8.90;;;;;;;;;;5081185;28;20442;-79
2023/06/12 12:26:42;;;;;;;8.57;7.80;;;;;;;;;;5068945;28;20462;-79
2023/06/12 12:29:08;;;;;;;9.90;8.40;;;;;;;;;;5087608;28;20443;-80
2023/06/12 12:31:35;;;;;;;10.30;8.00;;;;;;;;;;5065949;28;20534;-80
2023/06/12 12:34:02;;;;;;;8.70;7.30;;;;;;;;;;5089278;28;20488;-80
2023/06/12 12:36:28;;;;;;;8.40;7.63;;;;;;;;;;5087029;28;20442;-80
2023/06/12 12:38:55;;;;;;;8.10;7.40;;;;;;;;;;5076405;28;20467;-80
2023/06/12 12:41:22;;;;;;;9.27;8.30;;;;;;;;;;5081618;28;20446;-80
2023/06/12 12:43:49;;;;;;;8.60;7.80;;;;;;;;;;5080900;28;20826;-80
2023/06/12 12:46:15;;;;;;;12.50;7.70;;;;;;;;;;5081114;28;20500;-80
2023/06/12 12:48:42;;;;;;;7.97;7.27;;;;;;;;;;5076552;28;20474;-80
2023/06/12 12:51:08;;;;;;;8.90;8.03;;;;;;;;;;5084299;28;20439;-80
2023/06/12 12:53:35;;;;;;;9.43;8.17;;;;;;;;;;5075182;28;20498;-80
2023/06/12 12:56:02;;;;;;;8.77;7.97;;;;;;;;;;5085916;28;20878;-80
2023/06/12 12:58:29;;;;;;;8.13;7.43;;;;;;;;;;5074865;28;20483;-80
2023/06/12 13:00:56;;;;;;;11.03;8.10;;;;;;;;;;5078357;28;20947;-80
2023/06/12 13:03:22;;;;;;;8.17;7.00;;;;;;;;;;5085923;28;20474;-80
2023/06/12 13:05:48;;;;;;;8.23;7.40;;;;;;;;;;5084181;28;20448;-80
2023/06/12 13:08:16;;;;;;;7.90;7.13;;;;;;;;;;5067795;28;20481;-80
2023/06/12 13:10:43;;;;;;;8.43;7.63;;;;;;;;;;5086355;28;20470;-80
2023/06/12 13:13:09;;;;;;;8.20;7.00;;;;;;;;;;5083026;28;20470;-80
2023/06/12 13:15:37;;;;;;;11.63;6.70;;;;;;;;;;5076832;28;20485;-80
2023/06/12 13:18:03;;;;;;;7.10;6.47;;;;;;;;;;5083109;28;20483;-79
2023/06/12 13:20:29;;;;;;;7.03;6.33;;;;;;;;;;5084336;28;20442;-80
2023/06/12 13:22:56;;;;;;;7.87;7.17;;;;;;;;;;5084447;28;20474;-80
2023/06/12 13:25:22;;;;;;;7.27;6.60;;;;;;;;;;5093200;28;20446;-80
2023/06/12 13:27:48;;;;;;;9.40;6.37;;;;;;;;;;5087788;28;20477;-80
2023/06/12 13:30:15;;;;;;;7.07;6.37;;;;;;;;;;5080478;28;20536;-80
2023/06/12 13:32:44;;;;;;;7.27;6.57;;;;;;;;;;5077988;28;20478;-81
2023/06/12 13:35:10;;;;;;;14.60;7.60;;;;;;;;;;5088167;28;20995;-81
2023/06/12 13:37:37;;;;;;;7.33;6.43;;;;;;;;;;5080876;28;20478;-80
2023/06/12 13:40:04;;;;;;;6.90;6.20;;;;;;;;;;5084258;28;20449;-80
2023/06/12 13:42:31;;;;;;;13.60;7.00;;;;;;;;;;5078436;28;20562;-80
2023/06/12 13:44:57;;;;;;;14.80;7.37;;;;;;;;;;5082645;28;20451;-80
2023/06/12 13:47:23;;;;;;;14.20;7.33;;;;;;;;;;5077211;28;20485;-80
2023/06/12 13:49:51;;;;;;;9.87;6.37;;;;;;;;;;5079990;28;20449;-80
2023/06/12 13:52:20;;;;;;;7.27;6.27;;;;;;;;;;5082130;28;20565;-80
2023/06/12 13:54:46;;;;;;;11.80;7.03;;;;;;;;;;5083668;28;20486;-80
2023/06/12 13:57:13;;;;;;;7.47;6.70;;;;;;;;;;5087563;28;21011;-80
2023/06/12 13:59:39;;;;;;;8.13;7.30;;;;;;;;;;5084643;28;20482;-81
2023/06/12 14:02:06;;;;;;;11.53;6.10;;;;;;;;;;5075909;28;20483;-81
2023/06/12 14:04:33;;;;;;;9.03;6.53;;;;;;;;;;5076079;28;21180;-80
2023/06/12 14:07:00;;;;;;;6.93;6.33;;;;;;;;;;5083406;28;20467;-80
2023/06/12 14:09:27;;;;;;;7.17;6.47;;;;;;;;;;5074735;28;20454;-81
2023/06/12 14:11:54;;;;;;;7.30;6.60;;;;;;;;;;5080272;28;20839;-80
2023/06/12 14:14:21;;;;;;;7.30;5.10;;;;;;;;;;5078798;28;20540;-80
2023/06/12 14:16:47;;;;;;;7.30;6.53;;;;;;;;;;5082727;28;20465;-80
2023/06/12 14:19:14;;;;;;;6.87;5.90;;;;;;;;;;5083923;28;20445;-81
2023/06/12 14:21:40;;;;;;;9.83;6.53;;;;;;;;;;5093823;28;20473;-80
2023/06/12 14:24:08;;;;;;;11.73;6.07;;;;;;;;;;5080442;28;20484;-80
2023/06/12 14:26:34;;;;;;;9.23;5.80;;;;;;;;;;5081036;28;20446;-80
2023/06/12 14:29:00;;;;;;;10.27;6.30;;;;;;;;;;5080892;28;20467;-80
2023/06/12 14:31:27;;;;;;;6.80;6.20;;;;;;;;;;5079483;28;20827;-81
2023/06/12 14:33:53;;;;;;;8.07;6.80;;;;;;;;;;5083694;28;20447;-80